createdAt,value
2019-05-01T00:01:01.575Z,34.77
2019-05-01T00:04:08.278Z,36.90
2019-05-01T00:06:40.942Z,33.57
2019-05-01T00:09:10.906Z,33.93
2019-05-01T00:11:40.056Z,42.57
2019-05-01T00:14:09.807Z,39.73
2019-05-01T00:16:39.246Z,37.70
2019-05-01T00:19:08.122Z,38.13
2019-05-01T00:21:37.176Z,41.27
2019-05-01T00:24:06.679Z,39.17
2019-05-01T00:26:35.748Z,47.03
2019-05-01T00:29:05.248Z,44.47
2019-05-01T00:31:34.033Z,43.20
2019-05-01T00:34:03.131Z,44.17
2019-05-01T00:36:32.179Z,44.93
2019-05-01T00:39:01.039Z,47.03
2019-05-01T00:41:29.838Z,52.67
2019-05-01T00:43:58.909Z,49.53
2019-05-01T00:46:27.750Z,49.20
2019-05-01T00:48:57.211Z,47.67
2019-05-01T00:51:26.287Z,48.87
2019-05-01T00:53:55.471Z,53.83
2019-05-01T00:56:43.426Z,56.97
2019-05-01T00:59:24.217Z,56.97
2019-05-01T01:02:12.170Z,60.50
2019-05-01T01:04:41.025Z,58.53
2019-05-01T01:07:10.337Z,58.57
2019-05-01T01:09:39.429Z,59.03
2019-05-01T01:12:08.511Z,58.57
2019-05-01T01:14:37.723Z,64.47
2019-05-01T01:17:06.526Z,55.90
2019-05-01T01:19:35.590Z,59.90
2019-05-01T01:22:04.447Z,63.00
2019-05-01T01:24:33.297Z,63.80
2019-05-01T01:27:02.990Z,65.43
2019-05-01T01:29:31.894Z,64.93
2019-05-01T01:32:00.970Z,62.70
2019-05-01T01:34:30.064Z,67.40
2019-05-01T01:36:58.872Z,65.37
2019-05-01T01:39:27.979Z,65.60
2019-05-01T01:41:57.448Z,66.33
2019-05-01T01:44:51.523Z,73.33
2019-05-01T01:47:20.855Z,69.97
2019-05-01T01:49:50.334Z,70.13
2019-05-01T01:52:19.470Z,71.90
2019-05-01T01:54:49.230Z,70.87
2019-05-01T01:57:18.271Z,77.37
2019-05-01T01:59:47.651Z,77.33
2019-05-01T02:02:33.331Z,76.03
2019-05-01T02:05:24.362Z,75.50
2019-05-01T02:07:53.395Z,80.30
2019-05-01T02:10:22.864Z,77.37
2019-05-01T02:12:52.183Z,78.13
2019-05-01T02:15:21.432Z,77.97
2019-05-01T02:17:50.649Z,77.17
2019-05-01T02:20:21.235Z,75.47
2019-05-01T02:22:50.171Z,72.73
2019-05-01T02:25:19.438Z,72.17
2019-05-01T02:28:07.938Z,72.10
2019-05-01T02:30:38.039Z,71.33
2019-05-01T02:33:07.072Z,76.87
2019-05-01T02:35:36.618Z,72.80
2019-05-01T02:38:06.478Z,69.03
2019-05-01T02:40:53.727Z,72.63
2019-05-01T02:43:25.955Z,71.70
2019-05-01T02:45:59.631Z,75.00
2019-05-01T02:48:33.124Z,69.90
2019-05-01T02:51:04.351Z,69.77
2019-05-01T02:53:37.248Z,69.33
2019-05-01T02:56:25.644Z,71.13
2019-05-01T02:58:56.991Z,72.67
2019-05-01T03:01:26.935Z,76.50
2019-05-01T03:03:58.347Z,77.13
2019-05-01T03:06:29.481Z,77.93
2019-05-01T03:08:59.888Z,77.43
2019-05-01T03:11:30.724Z,82.17
2019-05-01T03:14:02.608Z,80.17
2019-05-01T03:16:34.361Z,82.83
2019-05-01T03:19:06.510Z,83.93
2019-05-01T03:21:57.551Z,85.33
2019-05-01T03:24:27.838Z,83.60
2019-05-01T03:26:57.359Z,87.27
2019-05-01T03:29:26.604Z,87.33
2019-05-01T03:32:15.506Z,85.77
2019-05-01T03:34:26.529Z,94.47
2019-05-01T03:36:55.995Z,84.50
2019-05-01T03:39:24.860Z,90.57
2019-05-01T03:41:54.322Z,86.77
2019-05-01T03:44:24.035Z,84.00
2019-05-01T03:46:53.889Z,83.63
2019-05-01T03:49:23.002Z,90.37
2019-05-01T03:51:52.092Z,85.23
2019-05-01T03:54:21.533Z,86.43
2019-05-01T03:56:50.452Z,81.93
2019-05-01T03:59:19.621Z,87.07
2019-05-01T04:02:32.172Z,79.97
2019-05-01T04:04:47.831Z,81.03
2019-05-01T04:07:16.960Z,81.33
2019-05-01T04:09:45.902Z,77.33
2019-05-01T04:12:15.109Z,72.90
2019-05-01T04:14:44.430Z,75.87
2019-05-01T04:17:20.415Z,78.27
2019-05-01T04:19:49.629Z,78.47
2019-05-01T04:22:18.484Z,73.20
2019-05-01T04:24:47.928Z,76.70
2019-05-01T04:27:22.403Z,74.93
2019-05-01T04:30:13.667Z,75.40
2019-05-01T04:32:52.843Z,74.90
2019-05-01T04:35:22.025Z,73.70
2019-05-01T04:37:51.877Z,70.03
2019-05-01T04:40:21.569Z,71.90
2019-05-01T04:42:50.634Z,72.03
2019-05-01T04:45:20.980Z,71.50
2019-05-01T04:47:50.500Z,67.40
2019-05-01T04:50:19.639Z,66.03
2019-05-01T04:52:48.966Z,70.27
2019-05-01T04:55:17.898Z,70.10
2019-05-01T04:57:47.104Z,64.50
2019-05-01T05:00:16.510Z,67.57
2019-05-01T05:03:04.151Z,67.67
2019-05-01T05:05:22.414Z,62.40
2019-05-01T05:07:51.261Z,63.37
2019-05-01T05:10:20.726Z,66.17
2019-05-01T05:13:08.735Z,57.97
2019-05-01T05:15:55.434Z,60.70
2019-05-01T05:18:24.290Z,62.13
2019-05-01T05:20:53.612Z,68.53
2019-05-01T05:23:23.386Z,67.93
2019-05-01T05:25:53.036Z,65.40
2019-05-01T05:28:22.230Z,64.83
2019-05-01T05:30:53.076Z,58.50
2019-05-01T05:33:23.006Z,60.93
2019-05-01T05:35:54.314Z,62.10
2019-05-01T05:38:32.412Z,59.80
2019-05-01T05:41:02.950Z,59.40
2019-05-01T05:43:33.066Z,56.17
2019-05-01T05:46:03.020Z,52.00
2019-05-01T05:48:32.155Z,56.83
2019-05-01T05:51:26.173Z,55.60
2019-05-01T05:54:00.474Z,47.77
2019-05-01T05:56:36.096Z,52.47
2019-05-01T05:59:10.730Z,44.73
2019-05-01T06:02:03.814Z,52.30
2019-05-01T06:05:00.930Z,53.20
2019-05-01T06:07:45.910Z,50.87
2019-05-01T06:10:24.649Z,53.67
2019-05-01T06:13:13.200Z,50.77
2019-05-01T06:16:01.870Z,51.97
2019-05-01T06:18:39.374Z,48.33
2019-05-01T06:21:34.944Z,53.10
2019-05-01T06:24:16.790Z,49.63
2019-05-01T06:26:45.940Z,50.37
2019-05-01T06:29:14.708Z,55.67
2019-05-01T06:31:44.038Z,48.50
2019-05-01T06:34:12.973Z,50.97
2019-05-01T06:36:48.945Z,45.00
2019-05-01T06:39:13.346Z,49.17
2019-05-01T06:41:45.962Z,48.33
2019-05-01T06:44:33.359Z,48.57
2019-05-01T06:47:25.122Z,47.93
2019-05-01T06:50:31.980Z,46.53
2019-05-01T06:53:04.738Z,49.73
2019-05-01T06:55:32.391Z,44.97
2019-05-01T06:58:01.403Z,47.03
2019-05-01T07:00:30.937Z,45.73
2019-05-01T07:03:00.978Z,45.43
2019-05-01T07:05:30.854Z,49.53
2019-05-01T07:08:02.110Z,44.30
2019-05-01T07:10:43.199Z,47.40
2019-05-01T07:13:04.972Z,46.83
2019-05-01T07:15:34.715Z,49.10
2019-05-01T07:18:03.939Z,45.90
2019-05-01T07:20:51.323Z,46.40
2019-05-01T07:23:21.301Z,45.47
2019-05-01T07:25:50.967Z,46.47
2019-05-01T07:28:20.186Z,45.23
2019-05-01T07:31:00.990Z,51.37
2019-05-01T07:33:30.619Z,45.03
2019-05-01T07:36:00.333Z,48.33
2019-05-01T07:38:32.864Z,48.93
2019-05-01T07:41:03.490Z,40.70
2019-05-01T07:43:47.700Z,44.30
2019-05-01T07:46:28.527Z,47.50
2019-05-01T07:48:57.976Z,46.67
2019-05-01T07:51:27.312Z,47.20
2019-05-01T07:53:59.096Z,51.83
2019-05-01T07:56:29.948Z,54.50
2019-05-01T07:59:00.362Z,50.23
2019-05-01T08:01:54.490Z,48.83
2019-05-01T08:04:35.212Z,53.57
2019-05-01T08:06:57.124Z,50.40
2019-05-01T08:09:23.329Z,56.97
2019-05-01T08:11:52.114Z,57.57
2019-05-01T08:14:20.987Z,57.43
2019-05-01T08:16:50.096Z,55.50
2019-05-01T08:19:34.742Z,58.20
2019-05-01T08:22:11.205Z,56.60
2019-05-01T08:24:40.069Z,55.97
2019-05-01T08:27:15.690Z,52.57
2019-05-01T08:29:54.565Z,50.53
2019-05-01T08:32:41.675Z,55.97
2019-05-01T08:35:13.549Z,49.40
2019-05-01T08:37:42.354Z,55.30
2019-05-01T08:40:15.861Z,52.17
2019-05-01T08:42:44.137Z,48.60
2019-05-01T08:45:31.636Z,45.80
2019-05-01T08:48:15.183Z,46.93
2019-05-01T08:50:44.486Z,43.43
2019-05-01T08:53:18.164Z,45.87
2019-05-01T08:55:46.903Z,44.67
2019-05-01T08:58:15.999Z,42.90
2019-05-01T09:00:45.565Z,44.73
2019-05-01T09:03:18.693Z,43.20
2019-05-01T09:05:44.940Z,41.10
2019-05-01T09:08:14.784Z,44.63
2019-05-01T09:10:44.187Z,41.63
2019-05-01T09:13:13.394Z,42.03
2019-05-01T09:15:43.758Z,41.10
2019-05-01T09:18:13.031Z,39.90
2019-05-01T09:20:43.646Z,46.33
2019-05-01T09:23:14.309Z,43.63
2019-05-01T09:25:51.159Z,39.00
2019-05-01T09:28:26.243Z,40.13
2019-05-01T09:31:02.293Z,40.53
2019-05-01T09:33:32.109Z,42.60
2019-05-01T09:36:01.031Z,42.60
2019-05-01T09:38:29.900Z,41.07
2019-05-01T09:40:58.675Z,43.00
2019-05-01T09:43:30.886Z,40.23
2019-05-01T09:45:58.463Z,40.13
2019-05-01T09:48:27.242Z,41.53
2019-05-01T09:51:24.226Z,40.23
2019-05-01T09:54:09.853Z,39.27
2019-05-01T09:56:38.883Z,38.77
2019-05-01T09:59:07.760Z,39.43
2019-05-01T10:01:37.027Z,36.90
2019-05-01T10:04:05.894Z,38.97
2019-05-01T10:06:35.030Z,34.20
2019-05-01T10:09:05.791Z,37.30
2019-05-01T10:11:35.950Z,36.30
2019-05-01T10:14:05.727Z,32.23
2019-05-01T10:16:34.918Z,32.43
2019-05-01T10:19:04.156Z,32.73
2019-05-01T10:21:33.003Z,34.30
2019-05-01T10:24:02.119Z,32.13
2019-05-01T10:26:32.935Z,31.20
2019-05-01T10:29:15.647Z,32.60
2019-05-01T10:31:58.466Z,33.50
2019-05-01T10:34:38.691Z,28.07
2019-05-01T10:37:05.666Z,28.03
2019-05-01T10:39:34.787Z,29.40
2019-05-01T10:42:05.625Z,33.13
2019-05-01T10:44:34.602Z,32.20
2019-05-01T10:47:03.771Z,33.33
2019-05-01T10:49:33.090Z,30.23
2019-05-01T10:52:13.656Z,30.53
2019-05-01T10:54:33.330Z,30.63
2019-05-01T10:57:03.272Z,30.13
2019-05-01T10:59:33.454Z,31.13
2019-05-01T11:02:03.933Z,31.67
2019-05-01T11:04:33.079Z,29.60
2019-05-01T11:07:02.275Z,27.50
2019-05-01T11:09:31.065Z,32.23
2019-05-01T11:11:59.914Z,28.03
2019-05-01T11:14:28.766Z,29.17
2019-05-01T11:16:59.007Z,29.57
2019-05-01T11:19:29.646Z,29.73
2019-05-01T11:21:59.307Z,30.23
2019-05-01T11:24:28.102Z,27.33
2019-05-01T11:26:56.890Z,29.60
2019-05-01T11:29:25.987Z,27.90
2019-05-01T11:32:32.015Z,26.10
2019-05-01T11:35:20.180Z,23.67
2019-05-01T11:37:54.356Z,29.53
2019-05-01T11:40:29.082Z,29.03
2019-05-01T11:42:57.866Z,25.20
2019-05-01T11:45:27.014Z,27.10
2019-05-01T11:47:55.878Z,28.60
2019-05-01T11:50:25.547Z,30.20
2019-05-01T11:52:54.337Z,29.73
2019-05-01T11:55:23.492Z,25.80
2019-05-01T11:57:52.279Z,25.50
2019-05-01T12:00:21.315Z,26.17
2019-05-01T12:02:50.615Z,27.43
2019-05-01T12:05:19.773Z,27.03
2019-05-01T12:07:48.865Z,26.67
2019-05-01T12:10:18.370Z,28.47
2019-05-01T12:12:47.171Z,28.43
2019-05-01T12:15:17.915Z,26.93
2019-05-01T12:17:50.171Z,25.60
2019-05-01T12:20:21.792Z,24.77
2019-05-01T12:22:51.478Z,28.20
2019-05-01T12:25:20.635Z,25.50
2019-05-01T12:27:49.570Z,28.37
2019-05-01T12:30:19.082Z,25.90
2019-05-01T12:32:47.943Z,29.30
2019-05-01T12:35:16.876Z,28.47
2019-05-01T12:37:46.210Z,30.20
2019-05-01T12:40:18.189Z,32.00
2019-05-01T12:42:47.672Z,32.27
2019-05-01T12:45:17.009Z,32.00
2019-05-01T12:47:49.850Z,30.10
2019-05-01T12:50:20.311Z,33.47
2019-05-01T12:53:11.258Z,28.23
2019-05-01T12:55:59.142Z,26.97
2019-05-01T12:58:28.326Z,27.83
2019-05-01T13:00:57.146Z,32.77
2019-05-01T13:03:26.016Z,33.40
2019-05-01T13:05:55.464Z,31.90
2019-05-01T13:08:24.242Z,32.73
2019-05-01T13:10:53.370Z,30.00
2019-05-01T13:13:22.177Z,28.70
2019-05-01T13:15:50.977Z,30.07
2019-05-01T13:18:19.775Z,32.00
2019-05-01T13:20:48.641Z,37.27
2019-05-01T13:23:17.419Z,32.83
2019-05-01T13:25:47.186Z,40.00
2019-05-01T13:28:34.924Z,33.73
2019-05-01T13:31:13.415Z,33.70
2019-05-01T13:33:42.587Z,38.50
2019-05-01T13:36:11.787Z,36.67
2019-05-01T13:38:40.607Z,32.13
2019-05-01T13:41:10.409Z,33.97
2019-05-01T13:43:39.684Z,33.13
2019-05-01T13:46:08.752Z,35.10
2019-05-01T13:48:37.529Z,37.53
2019-05-01T13:51:06.312Z,37.87
2019-05-01T13:53:35.171Z,38.93
2019-05-01T13:56:04.510Z,37.87
2019-05-01T13:58:33.282Z,38.20
2019-05-01T14:01:02.167Z,37.23
2019-05-01T14:03:31.562Z,37.20
2019-05-01T14:06:00.375Z,37.20
2019-05-01T14:08:29.920Z,36.87
2019-05-01T14:10:59.121Z,38.53
2019-05-01T14:13:28.292Z,35.23
2019-05-01T14:15:57.160Z,37.93
2019-05-01T14:18:25.943Z,38.97
2019-05-01T14:21:13.426Z,36.33
2019-05-01T14:24:00.326Z,36.37
2019-05-01T14:26:29.594Z,37.83
2019-05-01T14:28:58.622Z,39.93
2019-05-01T14:31:27.430Z,42.00
2019-05-01T14:33:57.048Z,33.57
2019-05-01T14:36:26.222Z,34.70
2019-05-01T14:38:54.999Z,36.13
2019-05-01T14:41:23.810Z,31.07
2019-05-01T14:43:53.194Z,36.37
2019-05-01T14:46:22.403Z,34.77
2019-05-01T14:48:51.190Z,40.53
2019-05-01T14:51:21.713Z,33.93
2019-05-01T14:53:50.828Z,32.03
2019-05-01T14:56:20.029Z,35.20
2019-05-01T14:58:48.947Z,33.80
2019-05-01T15:01:17.739Z,32.90
2019-05-01T15:03:46.534Z,30.30
2019-05-01T15:06:15.787Z,34.97
2019-05-01T15:08:45.422Z,30.83
2019-05-01T15:11:14.207Z,35.83
2019-05-01T15:14:01.493Z,32.43
2019-05-01T15:16:48.343Z,31.57
2019-05-01T15:19:22.715Z,35.70
2019-05-01T15:21:51.515Z,38.20
2019-05-01T15:24:21.258Z,29.53
2019-05-01T15:26:50.325Z,35.80
2019-05-01T15:29:19.172Z,30.17
2019-05-01T15:31:48.912Z,30.13
2019-05-01T15:34:18.628Z,34.50
2019-05-01T15:36:47.428Z,32.50
2019-05-01T15:39:44.552Z,31.47
2019-05-01T15:42:42.096Z,32.60
2019-05-01T15:45:11.899Z,29.13
2019-05-01T15:47:40.700Z,32.07
2019-05-01T15:50:11.875Z,33.73
2019-05-01T15:52:41.047Z,35.03
2019-05-01T15:55:11.394Z,32.00
2019-05-01T15:57:40.799Z,31.80
2019-05-01T16:00:12.271Z,30.50
2019-05-01T16:02:41.351Z,29.90
2019-05-01T16:05:11.566Z,33.90
2019-05-01T16:07:40.354Z,34.97
2019-05-01T16:10:11.556Z,32.67
2019-05-01T16:12:56.252Z,34.33
2019-05-01T16:15:28.738Z,36.93
2019-05-01T16:17:58.242Z,30.20
2019-05-01T16:20:27.335Z,34.30
2019-05-01T16:22:56.759Z,36.60
2019-05-01T16:25:25.778Z,34.47
2019-05-01T16:27:55.233Z,33.93
2019-05-01T16:30:25.991Z,34.43
2019-05-01T16:32:55.118Z,33.80
2019-05-01T16:35:24.668Z,33.23
2019-05-01T16:37:55.140Z,35.63
2019-05-01T16:40:37.821Z,38.30
2019-05-01T16:43:09.467Z,36.60
2019-05-01T16:45:38.318Z,35.40
2019-05-01T16:48:07.355Z,38.80
2019-05-01T16:50:36.155Z,33.57
2019-05-01T16:53:05.209Z,36.53
2019-05-01T16:55:34.011Z,34.57
2019-05-01T16:58:03.966Z,35.07
2019-05-01T17:00:59.116Z,35.00
2019-05-01T17:03:49.642Z,37.00
2019-05-01T17:06:29.797Z,39.60
2019-05-01T17:09:01.756Z,37.60
2019-05-01T17:11:32.681Z,38.00
2019-05-01T17:14:02.182Z,35.40
2019-05-01T17:16:31.110Z,33.07
2019-05-01T17:18:59.920Z,37.10
2019-05-01T17:21:28.775Z,33.43
2019-05-01T17:23:57.802Z,33.53
2019-05-01T17:26:26.578Z,35.17
2019-05-01T17:28:55.847Z,35.80
2019-05-01T17:31:26.475Z,33.80
2019-05-01T17:33:56.741Z,35.17
2019-05-01T17:36:25.698Z,33.43
2019-05-01T17:38:54.794Z,37.17
2019-05-01T17:41:27.146Z,40.33
2019-05-01T17:43:56.655Z,31.67
2019-05-01T17:46:25.870Z,33.07
2019-05-01T17:48:54.659Z,36.57
2019-05-01T17:51:23.751Z,34.03
2019-05-01T17:53:52.531Z,37.80
2019-05-01T17:56:27.494Z,35.03
2019-05-01T17:58:52.101Z,35.20
2019-05-01T18:01:38.467Z,36.70
2019-05-01T18:04:25.214Z,41.53
2019-05-01T18:06:54.346Z,30.63
2019-05-01T18:09:23.770Z,38.80
2019-05-01T18:11:53.684Z,34.67
2019-05-01T18:14:22.571Z,34.67
2019-05-01T18:16:51.779Z,38.37
2019-05-01T18:19:20.565Z,38.73
2019-05-01T18:21:57.148Z,35.57
2019-05-01T18:24:46.815Z,33.10
2019-05-01T18:27:44.022Z,37.00
2019-05-01T18:30:15.934Z,36.87
2019-05-01T18:32:51.957Z,35.83
2019-05-01T18:35:17.008Z,35.70
2019-05-01T18:37:53.770Z,37.30
2019-05-01T18:40:44.844Z,35.07
2019-05-01T18:43:13.783Z,36.00
2019-05-01T18:45:56.764Z,36.07
2019-05-01T18:48:26.594Z,35.90
2019-05-01T18:50:56.413Z,32.60
2019-05-01T18:53:25.647Z,34.17
2019-05-01T18:55:54.627Z,36.87
2019-05-01T18:58:23.581Z,32.23
2019-05-01T19:00:52.542Z,34.80
2019-05-01T19:03:22.584Z,36.53
2019-05-01T19:05:51.638Z,41.43
2019-05-01T19:08:20.426Z,37.57
2019-05-01T19:10:49.682Z,33.63
2019-05-01T19:13:18.987Z,33.07
2019-05-01T19:15:47.783Z,33.77
2019-05-01T19:18:16.635Z,36.13
2019-05-01T19:20:58.933Z,35.27
2019-05-01T19:23:16.914Z,38.00
2019-05-01T19:25:45.887Z,33.63
2019-05-01T19:28:16.011Z,37.87
2019-05-01T19:30:45.574Z,32.70
2019-05-01T19:33:14.924Z,36.57
2019-05-01T19:35:44.026Z,34.63
2019-05-01T19:38:13.431Z,32.27
2019-05-01T19:40:42.846Z,33.70
2019-05-01T19:43:11.748Z,37.97
2019-05-01T19:45:41.018Z,35.40
2019-05-01T19:48:09.995Z,36.40
2019-05-01T19:50:45.605Z,35.77
2019-05-01T19:53:14.361Z,36.63
2019-05-01T19:55:44.860Z,34.13
2019-05-01T19:58:10.989Z,35.87
2019-05-01T20:00:54.720Z,37.37
2019-05-01T20:03:23.662Z,36.27
2019-05-01T20:05:53.114Z,39.33
2019-05-01T20:08:22.139Z,36.10
2019-05-01T20:10:51.204Z,38.00
2019-05-01T20:13:19.983Z,38.07
2019-05-01T20:15:48.923Z,37.67
2019-05-01T20:18:17.934Z,37.00
2019-05-01T20:20:47.087Z,38.23
2019-05-01T20:23:16.138Z,37.30
2019-05-01T20:25:45.134Z,36.77
2019-05-01T20:28:13.986Z,41.47
2019-05-01T20:30:42.920Z,38.63
2019-05-01T20:33:11.699Z,37.63
2019-05-01T20:35:40.852Z,40.30
2019-05-01T20:38:09.711Z,41.10
2019-05-01T20:40:38.571Z,36.90
2019-05-01T20:43:07.488Z,38.47
2019-05-01T20:45:36.472Z,38.57
2019-05-01T20:48:05.314Z,39.53
2019-05-01T20:50:34.392Z,39.27
2019-05-01T20:53:03.481Z,39.63
2019-05-01T20:55:32.690Z,39.93
2019-05-01T20:58:17.970Z,39.57
2019-05-01T21:00:53.584Z,39.07
2019-05-01T21:03:19.586Z,37.00
2019-05-01T21:06:07.758Z,35.40
2019-05-01T21:08:42.134Z,40.77
2019-05-01T21:11:15.385Z,37.13
2019-05-01T21:13:44.987Z,35.17
2019-05-01T21:16:13.772Z,33.23
2019-05-01T21:18:42.572Z,31.80
2019-05-01T21:21:11.356Z,32.40
2019-05-01T21:23:40.155Z,35.27
2019-05-01T21:26:09.337Z,30.90
2019-05-01T21:28:38.119Z,32.20
2019-05-01T21:31:06.902Z,36.00
2019-05-01T21:33:36.014Z,33.27
2019-05-01T21:36:08.462Z,35.47
2019-05-01T21:38:35.964Z,31.93
2019-05-01T21:41:05.138Z,31.13
2019-05-01T21:43:36.995Z,34.00
2019-05-01T21:46:04.590Z,32.50
2019-05-01T21:48:33.953Z,32.40
2019-05-01T21:51:07.290Z,34.87
2019-05-01T21:53:37.422Z,33.90
2019-05-01T21:56:06.107Z,31.53
2019-05-01T21:58:36.054Z,37.83
2019-05-01T22:01:06.699Z,34.97
2019-05-01T22:03:35.639Z,32.17
2019-05-01T22:06:05.015Z,32.43
2019-05-01T22:08:34.524Z,37.17
2019-05-01T22:11:04.708Z,33.13
2019-05-01T22:13:33.824Z,35.27
2019-05-01T22:16:09.264Z,36.13
2019-05-01T22:18:44.518Z,35.73
2019-05-01T22:21:21.725Z,37.77
2019-05-01T22:24:15.651Z,36.90
2019-05-01T22:26:48.343Z,35.67
2019-05-01T22:29:19.134Z,38.23
2019-05-01T22:32:09.852Z,38.67
2019-05-01T22:34:43.695Z,32.53
2019-05-01T22:37:12.559Z,38.07
2019-05-01T22:39:44.138Z,37.23
2019-05-01T22:42:13.015Z,36.57
2019-05-01T22:44:41.818Z,37.17
2019-05-01T22:47:15.074Z,35.80
2019-05-01T22:49:41.490Z,36.83
2019-05-01T22:52:10.339Z,37.60
2019-05-01T22:54:39.403Z,34.53
2019-05-01T22:57:08.177Z,37.80
2019-05-01T22:59:37.307Z,36.50
2019-05-01T23:02:16.236Z,33.63
2019-05-01T23:04:48.397Z,35.13
2019-05-01T23:07:16.742Z,31.90
2019-05-01T23:09:46.747Z,33.77
2019-05-01T23:12:15.683Z,32.13
2019-05-01T23:14:45.227Z,35.83
2019-05-01T23:17:39.601Z,31.67
2019-05-01T23:20:08.848Z,36.53
2019-05-01T23:22:37.710Z,35.93
2019-05-01T23:25:06.854Z,33.87
2019-05-01T23:27:35.715Z,35.73
2019-05-01T23:30:05.335Z,35.93
2019-05-01T23:32:34.116Z,31.17
2019-05-01T23:35:02.916Z,32.77
2019-05-01T23:37:33.030Z,34.20
2019-05-01T23:40:01.804Z,32.53
2019-05-01T23:42:30.747Z,31.83
2019-05-01T23:44:59.536Z,33.53
2019-05-01T23:47:28.432Z,33.20
2019-05-01T23:49:57.533Z,35.83
2019-05-01T23:52:27.054Z,32.73
2019-05-01T23:54:55.819Z,37.73
2019-05-01T23:57:24.607Z,32.43
2019-05-01T23:59:53.699Z,32.23
